Time;durP1;ratioP1;P1;durP2;ratioP2;P2;SDS_P1;SDS_P2;PMS_P1;PMS_P2;Temp;Humidity;BMP_temperature;BMP_pressure;BME280_temperature;BME280_humidity;BME280_pressure;Samples;Min_cycle;Max_cycle;Signal;HPM_P1;HPM_P2
2021/07/31 00:04:26;;;;;;;17.33;7.53;;;20.40;95.20;;;;;;5058415;28;20204;-82
2021/07/31 00:06:51;;;;;;;18.33;7.87;;;20.40;95.30;;;;;;5040378;28;20173;-82
2021/07/31 00:09:17;;;;;;;10.97;7.50;;;20.40;95.40;;;;;;5039486;28;20196;-82
2021/07/31 00:11:43;;;;;;;14.57;8.00;;;20.40;95.30;;;;;;5039647;28;20193;-82
2021/07/31 00:14:09;;;;;;;14.53;8.17;;;20.40;95.20;;;;;;5039817;28;20208;-81
2021/07/31 00:16:34;;;;;;;11.13;7.40;;;20.40;95.40;;;;;;5039930;28;20169;-82
2021/07/31 00:19:00;;;;;;;17.67;9.33;;;20.40;95.30;;;;;;5039356;28;20187;-83
2021/07/31 00:21:26;;;;;;;12.53;7.50;;;20.50;95.10;;;;;;5038429;28;20177;-83
2021/07/31 00:23:52;;;;;;;11.40;7.03;;;20.50;94.80;;;;;;5038949;28;20212;-83
2021/07/31 00:26:18;;;;;;;14.57;7.80;;;20.60;94.80;;;;;;5038644;28;20168;-82
2021/07/31 00:28:44;;;;;;;15.43;8.10;;;20.70;94.60;;;;;;5038493;28;20310;-82
2021/07/31 00:31:10;;;;;;;16.00;8.00;;;20.70;94.50;;;;;;5038987;28;20201;-82
2021/07/31 00:33:35;;;;;;;16.03;8.10;;;20.70;94.70;;;;;;5038971;28;20193;-82
2021/07/31 00:36:01;;;;;;;9.63;5.73;;;20.70;94.70;;;;;;5039282;28;20404;-82
2021/07/31 00:38:27;;;;;;;15.50;6.13;;;20.70;93.10;;;;;;5038774;28;20180;-82
2021/07/31 00:40:53;;;;;;;15.83;8.10;;;20.70;92.70;;;;;;5039024;28;20212;-82
2021/07/31 00:43:27;;;;;;;11.10;5.67;;;20.70;92.50;;;;;;5039055;28;20212;-83
2021/07/31 00:45:53;;;;;;;10.77;5.95;;;20.70;91.90;;;;;;5038418;28;20180;-83
2021/07/31 00:48:20;;;;;;;13.03;4.93;;;20.80;92.10;;;;;;5038406;28;20173;-83
2021/07/31 00:50:46;;;;;;;10.02;5.30;;;20.80;90.70;;;;;;5038235;28;20629;-82
2021/07/31 00:53:13;;;;;;;5.83;4.00;;;20.80;88.00;;;;;;5038098;28;20193;-82
2021/07/31 00:55:39;;;;;;;8.68;4.97;;;20.80;88.40;;;;;;5038316;28;20176;-82
2021/07/31 00:58:07;;;;;;;10.33;5.50;;;20.80;88.50;;;;;;5038428;28;20541;-82
2021/07/31 01:00:33;;;;;;;9.20;5.30;;;20.70;88.80;;;;;;5038510;28;20412;-83
2021/07/31 01:02:58;;;;;;;9.17;5.97;;;20.70;89.20;;;;;;5056714;28;20208;-83
2021/07/31 01:32:50;;;;;;;7.05;4.20;;;20.90;88.30;;;;;;5059046;28;20207;-83
2021/07/31 01:35:16;;;;;;;6.90;3.50;;;20.90;87.80;;;;;;5042490;28;20215;-83
2021/07/31 01:37:42;;;;;;;10.37;3.53;;;20.90;87.60;;;;;;5042180;28;20245;-82
2021/07/31 01:40:09;;;;;;;8.32;3.65;;;20.90;84.60;;;;;;5042166;28;20181;-82
2021/07/31 01:42:34;;;;;;;10.30;4.15;;;20.80;85.50;;;;;;5041404;28;20201;-83
2021/07/31 01:45:00;;;;;;;8.10;4.50;;;20.80;87.40;;;;;;5041271;28;20177;-82
2021/07/31 01:47:26;;;;;;;5.33;4.13;;;20.80;90.40;;;;;;5041590;28;20165;-82
2021/07/31 01:49:52;;;;;;;6.80;5.07;;;20.80;91.50;;;;;;5041624;28;20197;-82
2021/07/31 01:52:17;;;;;;;8.83;3.77;;;20.80;92.50;;;;;;5040818;28;20489;-82
2021/07/31 01:54:43;;;;;;;8.60;4.10;;;20.70;91.40;;;;;;5041645;28;20173;-83
2021/07/31 01:57:09;;;;;;;9.10;4.90;;;20.70;91.50;;;;;;5041037;28;20416;-83
2021/07/31 01:59:35;;;;;;;11.07;3.50;;;20.70;92.40;;;;;;5040811;28;20600;-82
2021/07/31 02:02:00;;;;;;;13.03;3.93;;;20.60;89.50;;;;;;5040793;28;20668;-82
2021/07/31 02:04:26;;;;;;;5.53;3.33;;;20.50;90.40;;;;;;5040606;28;20193;-82
2021/07/31 02:06:52;;;;;;;5.00;3.33;;;20.50;91.20;;;;;;5040210;28;20172;-82
2021/07/31 02:09:17;;;;;;;12.33;3.77;;;20.40;91.30;;;;;;5040970;28;20165;-82
2021/07/31 02:11:43;;;;;;;7.93;2.80;;;20.40;90.70;;;;;;5040895;28;20191;-82
2021/07/31 02:14:09;;;;;;;5.57;3.27;;;20.30;87.70;;;;;;5040862;28;20224;-82
2021/07/31 02:16:35;;;;;;;6.05;3.15;;;20.20;88.00;;;;;;5040166;28;20177;-82
2021/07/31 02:19:01;;;;;;;9.40;3.67;;;20.20;88.70;;;;;;5040530;28;20592;-82
2021/07/31 02:21:26;;;;;;;7.13;3.60;;;20.10;89.20;;;;;;5040712;28;20219;-82
2021/07/31 02:23:52;;;;;;;5.33;2.87;;;20.10;89.50;;;;;;5040723;28;20212;-82
2021/07/31 02:26:18;;;;;;;5.00;2.87;;;20.00;88.90;;;;;;5041083;28;20175;-81
2021/07/31 02:28:44;;;;;;;3.57;2.20;;;19.90;82.70;;;;;;5041817;28;20172;-82
2021/07/31 02:31:12;;;;;;;7.07;2.27;;;19.70;82.60;;;;;;5040210;28;20415;-82
2021/07/31 02:33:39;;;;;;;9.48;2.88;;;19.70;82.10;;;;;;5041666;28;20797;-82
2021/07/31 02:36:06;;;;;;;8.40;2.90;;;19.60;84.60;;;;;;5041468;28;20193;-82
2021/07/31 02:38:32;;;;;;;9.60;2.85;;;19.60;86.20;;;;;;5040918;28;20660;-82
2021/07/31 02:40:57;;;;;;;5.88;2.45;;;19.50;86.20;;;;;;5041149;28;20216;-82
2021/07/31 02:43:23;;;;;;;3.83;1.93;;;19.50;86.70;;;;;;5041256;28;20205;-82
2021/07/31 02:45:49;;;;;;;5.17;2.20;;;19.50;86.70;;;;;;5040675;28;20188;-82
2021/07/31 02:48:15;;;;;;;4.90;2.90;;;19.40;85.90;;;;;;5040578;28;20540;-81
2021/07/31 02:50:41;;;;;;;5.37;2.60;;;19.40;84.20;;;;;;5040757;28;20419;-82
2021/07/31 02:53:06;;;;;;;2.83;1.83;;;19.30;85.10;;;;;;5040790;28;20231;-82
2021/07/31 02:55:32;;;;;;;4.90;2.37;;;19.20;81.00;;;;;;5040344;28;20447;-82
2021/07/31 02:57:58;;;;;;;3.73;1.90;;;19.10;83.50;;;;;;5040137;28;20200;-81
2021/07/31 03:00:24;;;;;;;6.87;3.00;;;19.10;84.90;;;;;;5039791;28;20177;-82
2021/07/31 03:02:49;;;;;;;6.53;2.60;;;19.10;85.20;;;;;;5039832;28;20526;-82
2021/07/31 03:05:15;;;;;;;8.10;2.87;;;19.00;85.80;;;;;;5039361;28;20621;-82
2021/07/31 03:07:41;;;;;;;5.10;2.10;;;19.00;85.90;;;;;;5039540;28;20311;-81
2021/07/31 03:10:07;;;;;;;7.73;2.80;;;19.00;85.50;;;;;;5039225;28;20179;-81
2021/07/31 03:12:33;;;;;;;4.25;2.20;;;18.80;85.50;;;;;;5038965;28;20200;-82
2021/07/31 03:14:59;;;;;;;19.97;2.90;;;18.80;85.20;;;;;;5038554;28;20180;-82
2021/07/31 03:17:26;;;;;;;8.43;2.57;;;18.70;85.90;;;;;;5040025;28;20412;-82
2021/07/31 03:19:52;;;;;;;10.20;2.63;;;18.70;85.90;;;;;;5039734;28;20426;-82
2021/07/31 03:22:18;;;;;;;7.22;2.33;;;18.70;86.30;;;;;;5039568;28;20212;-82
2021/07/31 03:24:44;;;;;;;6.23;3.07;;;18.60;86.90;;;;;;5040312;28;20169;-82
2021/07/31 03:27:10;;;;;;;6.00;2.77;;;18.50;87.10;;;;;;5039215;28;20169;-82
2021/07/31 03:29:36;;;;;;;5.35;2.30;;;18.40;87.70;;;;;;5039491;28;20431;-82
2021/07/31 03:32:02;;;;;;;5.20;2.57;;;18.40;88.30;;;;;;5039176;28;20169;-82
2021/07/31 03:34:28;;;;;;;15.17;3.27;;;18.30;88.90;;;;;;5039394;28;20414;-82
2021/07/31 03:36:55;;;;;;;10.90;2.60;;;18.20;89.40;;;;;;5039395;28;20416;-82
2021/07/31 03:39:22;;;;;;;6.97;2.80;;;18.20;90.10;;;;;;5039333;28;20439;-82
2021/07/31 03:41:48;;;;;;;6.95;3.05;;;18.10;90.80;;;;;;5040112;28;20200;-82
2021/07/31 03:44:14;;;;;;;8.27;2.92;;;18.10;91.50;;;;;;5038686;28;20818;-82
2021/07/31 03:46:47;;;;;;;5.90;2.97;;;18.10;92.10;;;;;;5038529;28;20189;-82
2021/07/31 03:49:13;;;;;;;6.05;3.50;;;18.00;92.80;;;;;;5039455;28;20169;-82
2021/07/31 03:51:40;;;;;;;8.68;3.42;;;18.00;93.40;;;;;;5039550;28;20169;-82
2021/07/31 03:54:06;;;;;;;6.93;3.72;;;17.90;93.80;;;;;;5038821;28;20193;-82
2021/07/31 03:56:32;;;;;;;14.50;3.63;;;17.90;94.00;;;;;;5038730;28;20537;-82
2021/07/31 03:58:58;;;;;;;7.85;4.00;;;17.80;93.90;;;;;;5039831;28;20846;-81
2021/07/31 04:01:25;;;;;;;8.50;3.60;;;17.80;93.70;;;;;;5039716;28;20197;-81
2021/07/31 04:03:51;;;;;;;5.28;3.30;;;17.80;93.60;;;;;;5040560;28;20470;-81
2021/07/31 04:06:18;;;;;;;7.22;3.35;;;17.70;93.20;;;;;;5039717;28;20169;-82
2021/07/31 04:08:44;;;;;;;6.80;3.40;;;17.70;93.10;;;;;;5039711;28;20567;-82
2021/07/31 04:11:10;;;;;;;7.25;3.22;;;17.70;92.80;;;;;;5040211;28;20169;-82
2021/07/31 04:13:36;;;;;;;5.63;2.80;;;17.60;92.70;;;;;;5039932;28;20189;-82
2021/07/31 04:16:07;;;;;;;10.60;3.70;;;17.60;92.50;;;;;;5058501;28;20235;-82
2021/07/31 04:18:32;;;;;;;10.52;4.05;;;17.60;92.10;;;;;;5039900;28;20413;-82
2021/07/31 04:20:58;;;;;;;11.00;3.70;;;17.60;92.30;;;;;;5039248;28;20231;-82
2021/07/31 04:23:24;;;;;;;6.10;3.37;;;17.60;92.50;;;;;;5039689;28;20455;-82
2021/07/31 04:25:50;;;;;;;6.60;3.13;;;17.60;92.60;;;;;;5038357;28;20172;-82
2021/07/31 04:28:15;;;;;;;11.43;3.03;;;17.50;92.70;;;;;;5038218;28;20205;-82
2021/07/31 04:30:41;;;;;;;5.30;3.03;;;17.50;92.80;;;;;;5037455;28;20177;-82
2021/07/31 04:33:07;;;;;;;10.20;3.97;;;17.40;93.10;;;;;;5037822;28;20254;-82
2021/07/31 04:35:33;;;;;;;7.27;3.43;;;17.40;93.40;;;;;;5038049;28;20646;-82
2021/07/31 04:37:58;;;;;;;6.73;3.80;;;17.40;93.20;;;;;;5038210;28;20260;-82
2021/07/31 04:40:24;;;;;;;6.63;3.43;;;17.40;93.30;;;;;;5038314;28;20510;-82
2021/07/31 04:42:50;;;;;;;6.10;4.03;;;17.40;93.60;;;;;;5038426;28;20708;-82
2021/07/31 04:45:15;;;;;;;6.87;3.30;;;17.30;93.60;;;;;;5037816;28;20169;-82
2021/07/31 04:47:43;;;;;;;7.60;3.17;;;17.30;93.80;;;;;;5039035;28;20177;-82
2021/07/31 04:50:12;;;;;;;7.18;3.10;;;17.30;93.90;;;;;;5039228;28;20201;-82
2021/07/31 04:52:38;;;;;;;9.57;2.97;;;17.30;94.10;;;;;;5038648;28;20258;-82
2021/07/31 04:55:04;;;;;;;7.00;2.67;;;17.30;94.00;;;;;;5038928;28;20184;-82
2021/07/31 04:57:30;;;;;;;10.52;2.90;;;17.30;94.10;;;;;;5039024;28;20420;-82
2021/07/31 04:59:56;;;;;;;7.07;3.17;;;17.40;93.90;;;;;;5038341;28;20227;-81
2021/07/31 05:02:22;;;;;;;6.97;2.57;;;17.40;93.10;;;;;;5038151;28;20205;-81
2021/07/31 05:04:47;;;;;;;4.70;2.80;;;17.40;92.50;;;;;;5037625;28;20211;-81
2021/07/31 05:07:14;;;;;;;5.50;2.63;;;17.40;91.50;;;;;;5039543;28;20415;-81
2021/07/31 05:09:39;;;;;;;5.05;2.88;;;17.40;91.10;;;;;;5041874;28;20179;-81
2021/07/31 05:12:06;;;;;;;4.33;2.70;;;17.50;91.40;;;;;;5042195;28;20549;-83
2021/07/31 05:14:31;;;;;;;9.63;3.33;;;17.50;91.50;;;;;;5042805;28;20408;-83
2021/07/31 05:16:57;;;;;;;8.03;2.93;;;17.60;91.40;;;;;;5042743;28;20683;-83
2021/07/31 05:19:23;;;;;;;7.77;2.43;;;17.70;90.90;;;;;;5042420;28;20465;-83
2021/07/31 05:21:49;;;;;;;10.63;3.17;;;17.70;90.60;;;;;;5042942;28;20169;-83
2021/07/31 05:24:14;;;;;;;9.30;3.33;;;17.80;90.90;;;;;;5041895;28;20263;-83
2021/07/31 05:26:41;;;;;;;8.53;2.67;;;17.90;90.60;;;;;;5042009;28;20764;-83
2021/07/31 05:29:07;;;;;;;10.13;2.70;;;17.90;90.70;;;;;;5041145;28;20260;-82
2021/07/31 05:31:34;;;;;;;6.28;2.50;;;17.90;90.90;;;;;;5041660;28;20174;-82
2021/07/31 05:34:01;;;;;;;5.25;3.13;;;18.00;90.30;;;;;;5041425;28;20442;-81
2021/07/31 05:36:27;;;;;;;6.57;3.55;;;18.00;90.20;;;;;;5041400;28;20173;-83
2021/07/31 05:38:53;;;;;;;5.60;2.67;;;18.10;89.60;;;;;;5041244;28;20196;-83
2021/07/31 05:41:22;;;;;;;5.30;2.40;;;18.10;89.90;;;;;;5111335;22;20255;-77
2021/07/31 05:43:48;;;;;;;6.35;2.90;;;18.10;89.20;;;;;;5039297;28;20263;-77
2021/07/31 05:46:18;;;;;;;4.38;2.58;;;18.20;89.80;;;;;;5042213;28;20264;-79
2021/07/31 05:48:47;;;;;;;5.50;2.78;;;18.30;87.70;;;;;;5040314;28;20239;-81
2021/07/31 05:51:13;;;;;;;7.13;2.50;;;18.30;87.10;;;;;;5039544;28;20175;-82
2021/07/31 05:53:39;;;;;;;4.63;2.40;;;18.30;87.60;;;;;;5038275;28;20196;-84
2021/07/31 05:56:09;;;;;;;6.73;2.20;;;18.40;85.80;;;;;;5038195;28;20181;-83
2021/07/31 05:58:36;;;;;;;8.02;2.40;;;18.40;85.30;;;;;;5038130;28;20416;-83
2021/07/31 06:01:04;;;;;;;21.85;3.33;;;18.50;85.50;;;;;;5038267;28;20185;-83
2021/07/31 06:03:30;;;;;;;5.57;2.20;;;18.50;85.30;;;;;;5037987;28;20300;-83
2021/07/31 06:05:57;;;;;;;2.60;2.00;;;18.70;85.50;;;;;;5038526;28;20596;-83
2021/07/31 06:08:23;;;;;;;7.65;2.60;;;18.80;84.80;;;;;;5038103;28;20173;-83
2021/07/31 06:10:49;;;;;;;4.63;2.70;;;18.90;84.90;;;;;;5038272;28;20173;-83
2021/07/31 06:13:15;;;;;;;10.50;2.20;;;19.10;85.10;;;;;;5037813;28;20447;-83
2021/07/31 06:15:42;;;;;;;9.33;2.20;;;19.20;84.80;;;;;;5038098;28;20184;-83
2021/07/31 06:18:09;;;;;;;5.32;2.65;;;19.20;83.30;;;;;;5038017;28;20177;-84
2021/07/31 06:20:35;;;;;;;7.15;2.35;;;19.30;82.60;;;;;;5038247;28;20212;-83
2021/07/31 06:23:02;;;;;;;5.78;3.28;;;19.40;83.70;;;;;;5039313;28;20216;-81
2021/07/31 06:25:27;;;;;;;4.93;2.88;;;19.50;84.10;;;;;;5039452;28;20181;-80
2021/07/31 06:27:54;;;;;;;4.70;2.80;;;19.60;83.90;;;;;;5039292;28;20173;-80
2021/07/31 06:30:20;;;;;;;7.65;2.22;;;19.70;83.90;;;;;;5038957;28;20781;-81
2021/07/31 06:32:48;;;;;;;6.53;2.20;;;19.80;82.80;;;;;;5038610;28;20197;-81
2021/07/31 06:35:15;;;;;;;5.32;2.60;;;19.90;84.10;;;;;;5038391;28;20408;-81
2021/07/31 06:37:42;;;;;;;8.95;2.70;;;20.00;82.60;;;;;;5023125;28;20217;-83
2021/07/31 06:40:09;;;;;;;16.23;3.40;;;20.00;83.00;;;;;;5037618;28;20699;-83
2021/07/31 06:42:35;;;;;;;5.63;2.65;;;20.10;81.70;;;;;;5037565;28;20211;-83
2021/07/31 06:45:02;;;;;;;4.03;2.03;;;20.10;80.90;;;;;;5037232;28;20169;-83
2021/07/31 06:47:27;;;;;;;6.95;2.85;;;20.20;80.30;;;;;;5037599;28;20542;-83
2021/07/31 06:49:53;;;;;;;6.63;2.77;;;20.30;81.20;;;;;;5037341;28;20169;-83
2021/07/31 06:52:19;;;;;;;3.73;2.07;;;20.30;80.90;;;;;;5037099;28;20177;-83
2021/07/31 06:54:45;;;;;;;5.13;2.23;;;20.40;80.80;;;;;;5037187;28;20169;-83
2021/07/31 06:57:11;;;;;;;7.50;2.03;;;20.50;73.00;;;;;;5036970;28;20226;-83
2021/07/31 06:59:38;;;;;;;6.07;2.20;;;20.50;71.70;;;;;;5037267;28;20460;-83
2021/07/31 07:02:04;;;;;;;4.25;1.42;;;20.50;72.10;;;;;;5037242;28;20730;-83
2021/07/31 07:04:30;;;;;;;5.63;2.15;;;20.50;71.60;;;;;;5037455;28;20169;-82
2021/07/31 07:06:56;;;;;;;17.63;2.53;;;20.50;71.90;;;;;;5036904;28;20184;-83
2021/07/31 07:09:22;;;;;;;8.33;2.10;;;20.60;73.40;;;;;;5036681;28;20412;-84
2021/07/31 07:11:48;;;;;;;11.63;2.22;;;20.70;70.60;;;;;;5036833;28;20938;-83
2021/07/31 07:14:14;;;;;;;8.97;2.20;;;20.80;71.30;;;;;;5037043;28;20197;-83
2021/07/31 07:16:39;;;;;;;4.47;1.83;;;20.80;70.20;;;;;;5037554;28;20177;-83
2021/07/31 07:19:05;;;;;;;5.53;2.10;;;20.90;71.60;;;;;;5036993;28;20455;-83
2021/07/31 07:21:31;;;;;;;5.90;2.10;;;21.00;70.60;;;;;;5036672;28;20545;-83
2021/07/31 07:23:57;;;;;;;6.63;2.07;;;21.10;70.10;;;;;;5036569;28;20215;-82
2021/07/31 07:26:23;;;;;;;5.47;2.17;;;21.20;70.20;;;;;;5036970;28;20170;-81
2021/07/31 07:28:48;;;;;;;5.03;1.90;;;21.40;69.60;;;;;;5037573;28;20440;-81
2021/07/31 07:31:15;;;;;;;3.40;2.27;;;21.50;66.70;;;;;;5038322;28;20407;-81
2021/07/31 07:33:41;;;;;;;8.15;2.33;;;21.50;69.40;;;;;;5038798;28;20189;-81
2021/07/31 07:36:25;;;;;;;6.00;1.92;;;21.60;68.80;;;;;;5038345;28;20173;-80
2021/07/31 07:38:51;;;;;;;2.67;1.75;;;21.80;68.90;;;;;;5037992;28;20263;-83
2021/07/31 07:41:18;;;;;;;4.17;2.20;;;21.90;66.90;;;;;;5037399;28;20266;-81
2021/07/31 07:43:44;;;;;;;6.10;2.25;;;22.00;65.80;;;;;;5037692;28;20467;-81
2021/07/31 07:46:15;;;;;;;9.23;2.30;;;22.00;66.90;;;;;;5037098;28;20173;-81
2021/07/31 07:48:42;;;;;;;5.60;2.50;;;22.20;68.10;;;;;;5037648;28;20169;-81
2021/07/31 07:51:08;;;;;;;3.00;2.00;;;22.40;66.40;;;;;;5037295;28;20260;-81
2021/07/31 07:53:34;;;;;;;2.65;1.88;;;22.40;65.90;;;;;;5037108;28;20231;-81
2021/07/31 07:56:00;;;;;;;7.70;2.93;;;22.60;65.50;;;;;;5037625;28;20698;-81
2021/07/31 07:58:25;;;;;;;4.67;2.33;;;22.70;66.30;;;;;;5037377;28;20243;-81
2021/07/31 08:00:51;;;;;;;9.10;2.33;;;22.50;65.80;;;;;;5038306;28;20846;-81
2021/07/31 08:03:17;;;;;;;3.57;2.03;;;22.60;66.70;;;;;;5038712;28;20213;-82
2021/07/31 08:05:43;;;;;;;5.30;2.00;;;22.60;65.20;;;;;;5039002;28;20218;-82
2021/07/31 08:08:09;;;;;;;6.70;2.20;;;22.70;65.90;;;;;;5038183;28;20173;-81
2021/07/31 08:10:36;;;;;;;4.35;1.90;;;22.70;66.30;;;;;;5038679;28;20173;-82
2021/07/31 08:13:02;;;;;;;9.73;2.20;;;22.80;65.60;;;;;;5038104;28;20193;-80
2021/07/31 08:15:28;;;;;;;8.80;2.03;;;22.90;65.50;;;;;;5036864;28;20176;-82
2021/07/31 08:17:54;;;;;;;3.55;1.90;;;23.00;65.50;;;;;;5036404;28;20260;-82
2021/07/31 08:20:21;;;;;;;3.47;1.73;;;22.90;64.10;;;;;;5037261;28;20169;-83
2021/07/31 08:22:47;;;;;;;7.63;2.80;;;22.70;62.70;;;;;;5036014;28;20204;-83
2021/07/31 08:25:13;;;;;;;3.80;2.07;;;22.60;62.40;;;;;;5037103;28;20204;-83
2021/07/31 08:27:38;;;;;;;3.60;2.10;;;22.60;63.40;;;;;;5037661;28;20412;-83
2021/07/31 08:30:06;;;;;;;3.37;1.80;;;22.70;62.70;;;;;;5038457;28;20414;-82
2021/07/31 08:32:32;;;;;;;5.10;2.65;;;22.90;62.10;;;;;;5038926;28;20450;-82
2021/07/31 08:34:58;;;;;;;3.83;2.40;;;22.90;63.30;;;;;;5039136;28;20570;-83
2021/07/31 08:37:23;;;;;;;6.30;2.10;;;22.90;62.80;;;;;;5038829;28;20556;-81
2021/07/31 08:39:49;;;;;;;5.17;2.10;;;22.80;62.40;;;;;;5041377;28;20203;-82
2021/07/31 08:42:15;;;;;;;6.80;2.37;;;22.80;62.10;;;;;;5042817;28;20174;-81
2021/07/31 08:44:41;;;;;;;6.23;2.50;;;22.90;61.00;;;;;;5040866;28;20415;-81
2021/07/31 08:47:08;;;;;;;5.60;2.05;;;23.00;60.80;;;;;;5039654;28;20174;-80
2021/07/31 08:49:37;;;;;;;4.10;1.92;;;22.90;60.90;;;;;;5040906;28;20580;-82
2021/07/31 08:52:05;;;;;;;6.10;1.83;;;22.90;60.90;;;;;;5041905;28;20634;-80
2021/07/31 08:54:31;;;;;;;4.40;1.90;;;22.90;60.90;;;;;;5040974;28;20218;-82
2021/07/31 08:56:57;;;;;;;6.20;1.98;;;23.00;61.20;;;;;;5040239;28;20176;-81
2021/07/31 08:59:29;;;;;;;4.53;2.23;;;23.20;61.20;;;;;;5039808;28;20173;-81
2021/07/31 09:01:56;;;;;;;4.32;2.20;;;23.50;61.00;;;;;;5040297;28;20165;-82
2021/07/31 09:04:23;;;;;;;12.52;2.30;;;23.80;64.10;;;;;;5040889;28;20216;-81
2021/07/31 09:06:49;;;;;;;4.88;1.73;;;24.20;61.70;;;;;;5039843;28;20169;-82
2021/07/31 09:09:24;;;;;;;5.32;2.60;;;24.40;61.30;;;;;;5041008;28;20394;-79
2021/07/31 09:12:05;;;;;;;4.55;1.58;;;24.70;58.70;;;;;;5040278;28;20169;-80
2021/07/31 09:14:32;;;;;;;9.77;2.38;;;24.80;56.80;;;;;;5040368;28;20177;-79
2021/07/31 09:16:59;;;;;;;4.53;1.75;;;24.90;56.40;;;;;;5041134;28;20184;-79
2021/07/31 09:19:28;;;;;;;5.85;1.90;;;24.50;57.90;;;;;;5041497;28;20173;-79
2021/07/31 09:22:03;;;;;;;10.38;2.35;;;24.50;58.40;;;;;;5040940;28;20605;-79
2021/07/31 09:24:29;;;;;;;6.07;2.75;;;24.30;57.90;;;;;;5040451;28;20180;-82
2021/07/31 09:26:55;;;;;;;5.90;1.80;;;24.10;58.80;;;;;;5040555;28;20721;-81
2021/07/31 09:29:30;;;;;;;5.38;1.80;;;24.00;58.80;;;;;;5040016;28;20200;-82
2021/07/31 09:31:58;;;;;;;5.15;2.05;;;24.10;57.40;;;;;;5041133;28;20172;-80
2021/07/31 09:34:35;;;;;;;4.38;1.90;;;24.40;60.10;;;;;;5037100;28;20673;-81
2021/07/31 09:37:05;;;;;;;3.20;1.63;;;24.80;58.80;;;;;;5037233;28;20169;-79
2021/07/31 09:39:56;;;;;;;5.97;2.30;;;25.00;57.20;;;;;;5036505;28;20180;-79
2021/07/31 09:42:27;;;;;;;5.07;2.10;;;25.20;57.00;;;;;;5036104;28;20219;-80
2021/07/31 09:44:52;;;;;;;4.82;1.75;;;25.30;55.10;;;;;;5036174;28;20173;-80
2021/07/31 09:47:18;;;;;;;7.47;2.70;;;25.40;55.30;;;;;;5036937;28;20172;-80
2021/07/31 09:49:46;;;;;;;5.67;2.00;;;25.30;55.50;;;;;;5036477;28;20176;-80
2021/07/31 09:52:21;;;;;;;2.85;1.65;;;25.40;55.70;;;;;;5036483;28;20172;-80
2021/07/31 09:54:48;;;;;;;5.65;2.20;;;25.50;55.50;;;;;;5039636;28;20168;-80
2021/07/31 09:57:14;;;;;;;4.70;1.80;;;25.50;55.70;;;;;;5040731;28;20180;-80
2021/07/31 09:59:47;;;;;;;7.28;2.20;;;25.80;54.60;;;;;;5041863;28;20657;-81
2021/07/31 10:02:18;;;;;;;5.50;1.75;;;25.80;54.70;;;;;;5040796;28;20260;-81
2021/07/31 10:04:45;;;;;;;7.63;2.05;;;26.00;54.30;;;;;;5040357;28;20179;-80
2021/07/31 10:07:12;;;;;;;7.25;2.10;;;26.00;53.00;;;;;;5040585;28;20583;-81
2021/07/31 10:09:45;;;;;;;4.47;2.40;;;25.70;53.70;;;;;;5040245;28;20169;-80
2021/07/31 10:12:14;;;;;;;7.78;1.77;;;25.40;54.50;;;;;;5040058;28;20169;-80
2021/07/31 10:14:41;;;;;;;2.38;1.85;;;25.40;55.40;;;;;;5039964;28;20169;-80
2021/07/31 10:17:09;;;;;;;5.80;1.85;;;25.30;55.40;;;;;;5039740;28;20633;-81
2021/07/31 10:19:53;;;;;;;5.00;2.00;;;25.20;57.00;;;;;;5039734;28;20169;-81
2021/07/31 10:22:38;;;;;;;3.38;1.85;;;25.30;57.00;;;;;;5039297;28;20165;-81
2021/07/31 10:25:09;;;;;;;5.38;2.10;;;25.40;55.50;;;;;;5040758;28;20171;-81
2021/07/31 10:27:35;;;;;;;5.55;1.80;;;25.70;52.80;;;;;;5039694;28;20196;-81
2021/07/31 10:30:02;;;;;;;4.65;2.42;;;25.50;52.50;;;;;;5040190;28;20173;-81
2021/07/31 10:32:32;;;;;;;4.38;2.15;;;25.40;53.00;;;;;;5039960;28;20193;-82
2021/07/31 10:35:00;;;;;;;4.72;1.55;;;25.60;52.90;;;;;;5040332;28;20605;-80
2021/07/31 10:37:29;;;;;;;3.80;1.77;;;25.80;52.80;;;;;;5040661;28;20173;-81
2021/07/31 10:40:09;;;;;;;5.93;2.13;;;26.00;51.70;;;;;;5040152;28;20220;-81
2021/07/31 10:42:47;;;;;;;2.90;1.30;;;26.00;51.90;;;;;;5039790;28;20201;-80
2021/07/31 10:45:17;;;;;;;4.18;1.90;;;26.10;50.50;;;;;;5038501;28;20188;-80
2021/07/31 10:47:44;;;;;;;4.60;1.88;;;26.30;50.30;;;;;;5039194;28;20168;-80
2021/07/31 10:50:22;;;;;;;8.27;1.85;;;26.50;49.00;;;;;;5039513;28;20642;-81
2021/07/31 10:53:02;;;;;;;3.53;2.20;;;26.60;48.80;;;;;;5038249;28;20627;-81
2021/07/31 10:55:37;;;;;;;7.00;2.58;;;26.80;52.00;;;;;;5038902;28;20169;-81
2021/07/31 10:58:17;;;;;;;3.13;1.90;;;27.30;50.00;;;;;;5039242;28;20538;-81
2021/07/31 11:00:43;;;;;;;5.90;1.80;;;27.70;47.50;;;;;;5038796;28;20231;-80
2021/07/31 11:03:15;;;;;;;4.38;2.20;;;27.60;47.80;;;;;;5038484;28;20684;-81
2021/07/31 11:06:00;;;;;;;5.50;1.70;;;27.30;46.90;;;;;;5037809;28;20577;-81
2021/07/31 11:08:30;;;;;;;7.07;2.17;;;26.80;48.30;;;;;;5038172;28;20308;-81
2021/07/31 11:10:58;;;;;;;4.68;1.58;;;26.30;48.40;;;;;;5038270;28;20184;-81
2021/07/31 11:13:24;;;;;;;6.90;1.60;;;25.90;49.10;;;;;;5038149;28;20204;-81
2021/07/31 11:15:55;;;;;;;4.40;1.70;;;25.90;51.10;;;;;;5038736;28;20177;-81
2021/07/31 11:18:26;;;;;;;3.90;1.65;;;25.90;50.30;;;;;;5038764;28;20173;-81
2021/07/31 11:20:52;;;;;;;4.35;1.83;;;25.90;49.20;;;;;;5037963;28;20181;-81
2021/07/31 11:23:19;;;;;;;6.75;2.08;;;26.00;50.80;;;;;;5038230;28;20209;-80
2021/07/31 11:25:45;;;;;;;10.00;2.20;;;26.20;50.00;;;;;;5037859;28;20629;-80
2021/07/31 11:28:12;;;;;;;5.35;1.90;;;26.40;49.20;;;;;;5037514;28;20169;-81
2021/07/31 11:30:37;;;;;;;3.70;2.05;;;26.20;49.10;;;;;;5037909;28;20169;-81
2021/07/31 11:33:27;;;;;;;6.40;2.27;;;26.30;49.50;;;;;;5037521;28;20648;-80
2021/07/31 11:35:57;;;;;;;4.22;1.83;;;26.10;49.80;;;;;;5037437;28;20233;-81
2021/07/31 11:38:36;;;;;;;2.33;1.30;;;25.90;49.00;;;;;;5038063;28;20244;-80
2021/07/31 11:41:07;;;;;;;7.03;1.80;;;25.90;49.00;;;;;;5137867;22;20250;-84
2021/07/31 11:43:43;;;;;;;5.32;2.13;;;26.10;49.90;;;;;;5045854;28;20787;-85
2021/07/31 11:46:10;;;;;;;11.35;2.85;;;26.40;48.40;;;;;;5037792;28;20161;-86
2021/07/31 11:48:36;;;;;;;6.05;1.92;;;26.40;47.40;;;;;;5038390;28;20649;-86
2021/07/31 11:51:06;;;;;;;6.43;2.20;;;26.30;49.00;;;;;;5037752;28;20169;-86
2021/07/31 11:53:32;;;;;;;86.90;79.68;;;26.30;50.00;;;;;;5037511;28;20947;-85
2021/07/31 11:56:12;;;;;;;4.43;2.95;;;26.40;49.40;;;;;;5037245;28;20184;-86
2021/07/31 11:58:40;;;;;;;5.60;3.40;;;26.30;48.30;;;;;;5037742;28;20173;-86
2021/07/31 12:01:07;;;;;;;38.58;25.98;;;26.20;49.50;;;;;;5038040;28;20173;-85
2021/07/31 12:03:47;;;;;;;4.53;2.67;;;26.10;50.50;;;;;;5036939;28;20201;-86
2021/07/31 12:06:35;;;;;;;8.90;2.50;;;26.10;50.80;;;;;;5037449;28;20674;-86
2021/07/31 12:09:26;;;;;;;7.63;1.85;;;26.40;49.60;;;;;;5037394;28;20165;-86
2021/07/31 12:11:56;;;;;;;9.30;1.90;;;26.70;47.50;;;;;;5037485;28;20173;-86
2021/07/31 12:14:32;;;;;;;7.03;2.50;;;27.10;47.90;;;;;;5037065;28;20200;-85
2021/07/31 12:17:16;;;;;;;6.40;2.03;;;27.50;45.80;;;;;;5036237;28;20179;-86
2021/07/31 12:19:48;;;;;;;3.45;2.20;;;27.60;46.30;;;;;;5036852;28;20188;-85
2021/07/31 12:22:22;;;;;;;15.05;2.65;;;27.90;46.50;;;;;;5037099;28;20173;-86
2021/07/31 12:25:08;;;;;;;6.38;2.40;;;28.10;46.30;;;;;;5036760;28;20169;-85
2021/07/31 12:27:53;;;;;;;3.97;2.08;;;28.20;46.90;;;;;;5036735;28;20173;-85
2021/07/31 12:30:29;;;;;;;5.88;2.30;;;28.50;45.80;;;;;;5036368;28;20256;-86
2021/07/31 12:33:00;;;;;;;6.15;2.72;;;28.70;45.20;;;;;;5036324;28;20208;-86
2021/07/31 12:35:57;;;;;;;341.13;226.43;;;28.50;45.00;;;;;;5035951;28;20221;-85
2021/07/31 12:38:25;;;;;;;351.13;237.88;;;28.30;46.50;;;;;;5036387;28;20259;-86
2021/07/31 12:40:57;;;;;;;52.42;35.75;;;28.40;46.70;;;;;;5036198;28;20188;-85
2021/07/31 12:43:25;;;;;;;5.95;2.80;;;28.90;45.80;;;;;;5038581;28;20233;-85
2021/07/31 12:45:52;;;;;;;151.20;101.32;;;29.00;43.60;;;;;;5037930;28;20592;-86
2021/07/31 12:48:18;;;;;;;264.52;162.82;;;29.10;43.60;;;;;;5038037;28;20169;-86
2021/07/31 12:50:44;;;;;;;5.43;3.83;;;29.30;44.50;;;;;;5037941;28;20576;-85
2021/07/31 12:53:15;;;;;;;17.83;8.38;;;29.40;42.40;;;;;;5039021;28;20200;-86
2021/07/31 12:55:42;;;;;;;37.95;19.98;;;28.70;43.70;;;;;;5038089;28;20203;-85
2021/07/31 12:58:09;;;;;;;452.65;294.00;;;28.40;45.20;;;;;;5037770;28;20583;-86
2021/07/31 13:00:36;;;;;;;13.00;6.47;;;28.60;44.30;;;;;;5038029;28;20177;-86
2021/07/31 13:03:03;;;;;;;20.33;13.05;;;28.70;44.90;;;;;;5036621;28;20243;-86
2021/07/31 13:05:29;;;;;;;5.55;2.80;;;28.80;44.50;;;;;;5037714;28;20169;-86
2021/07/31 13:07:58;;;;;;;22.40;15.80;;;29.00;43.10;;;;;;5036888;28;20227;-86
2021/07/31 13:10:24;;;;;;;7.25;2.22;;;29.10;44.30;;;;;;5037075;28;20411;-86
2021/07/31 13:12:50;;;;;;;28.90;12.15;;;29.30;43.90;;;;;;5036540;28;20197;-86
2021/07/31 13:15:16;;;;;;;13.83;8.97;;;29.50;42.00;;;;;;5036370;28;20207;-86
2021/07/31 13:17:42;;;;;;;28.27;17.27;;;29.60;43.10;;;;;;5036403;28;20469;-86